Portada
METAR-TAF:

METAR-TAF

Aeropuertos :

Uagadugú, Burkina Faso

Aeropuerto de Uagadugú

latitud: 12-21N, longitud: 001-31W, altitud: 316 m

Observación

El informe se hizo hace 56 minutos, a las 09:00 UTC
Viento 7 kt del oeste-noroeste
Temperatura 32°C
Humedad 52%
Presión 1014 hPa
Visibilidad: 8000 m

METAR: DFFD 230900Z 29007KT 8000 NSC 32/21 Q1014 NOSIG

Hora: 09:56 (09:56 UTC)

Pronóstico

El informe se hizo hace 10 horas y 56 minutos, a las 23:00 UTC
Pronóstico válido del 23 a las 00 UTC al 24 a las 06 UTC
Viento 10 kt con dirección variable
Visibilidad: 8000 m
Temporalmente
del 23 a las 06 UTC al 23 a las 10 UTC
Visibilidad: 2500 m
calima
Temporalmente
del 23 a las 17 UTC al 23 a las 20 UTC
Visibilidad: 4000 m
calima

TAF: DFFD 222300Z 2300/2406 VRB10KT 8000 NSC TEMPO 2306/2310 2500 HZ TEMPO 2317/2320 4000 HZ

Observaciones y pronósticos meteorológicos de más de 4000 aeropuertos (mensajes METAR y TAF).

Los puntos amarillos y rojos representan las estaciones disponibles.

Ponga el ratón en el punto deseado para ver el nombre de la estación.

Haga clic para ver las observaciones y los pronósticos meteorológicos.

Para cambiar el mapa : haga clic en los botones verdes con una cruz de color negro para hacer un zoom, en el botón verde con un guión para alejar o en las flechas verdes para mapas adyacentes.


METAR-TAF: